ePrivacy and GPDR Cookie Consent by Cookie Consent
EmailTwitter


Observations de surface / Québec / CYMX

Régions: Québec | Canada | États-Unis | Europe | France | UK | Ailleurs
Station
Affichage
Infos & localisation pour CYMX | Aide pour décoder les METARs

Observations prises le 2021-04-23 à 07H00 UTC à MONTREAL MIRABEL, QB (CYMX)

Etat du ciel: ciel variable.

Température: 1.0 Celsius

Point de rosée: -6.0 Celsius

Humidité relative: 60%

Facteur vent: -3.

Facteur vent (rafales): -5.

Vents: Sud-ouest à 17 km/h ou 9 noeuds.

Rafale du vent: 31 km/h ou 17 noeuds.

Pression au niveau moyen de la mer: 100.55 kilopascals.

Calage altimétrique: 100.51 kilopascals ou 29.68 pouces de mercure.

Visibilité horizontale: 25.00 milles terrestres ou 40.00 kilomètres.

Observation METAR:

CYMX 230700Z 24009G17KT 25SM SCT250 01/M06 A2968 RMK CI4 SLP055=